Latest Weather Observations for Adelaide Airport

IDS60801

Issued at 5:21 pm CST Saturday 22 September 2018 (issued every 10 minutes, with the page automatically refreshed every 10 minutes)

About weather observations | Map of weather stations | Latest weather observations for SA | Other Formats
Station Details ID: 023034 Name: ADELAIDE AIRPORT Lat: -34.95 Lon: 138.52 Height: 2.0 m
Data from the previous 72 hours. | See also: Recent months at Adelaide Airport
Date/Time
CST
Temp
°C
App
Temp
°C
Dew
Point
°C
Rel
Hum
%
Delta-T
°C
Wind Press
QNH
hPa
Press
MSL
hPa
Rain since
9am
mm
Dir  Spd
km/h
Gust
km/h
Spd
kts
Gust
kts
22/05:00pm 17.4 13.1 9.3 59 4.2 SSW 22 32 12 17 1027.2 1027.2 0.0
22/04:30pm 17.8 12.8 8.2 53 4.9 SW 24 30 13 16 1026.8 1026.8 0.0
22/04:00pm 18.3 13.2 7.6 49 5.4 SSW 24 30 13 16 1026.8 1026.8 0.0
22/03:30pm 18.3 13.8 10.0 58 4.4 SW 24 32 13 17 1026.8 1026.8 0.0
22/03:00pm 18.9 15.0 9.6 54 4.9 SW 20 26 11 14 1026.7 1026.7 0.0
22/02:30pm 19.6 15.5 7.9 46 6.0 S 19 26 10 14 1026.9 1026.9 0.0
22/02:00pm 19.8 16.3 7.4 44 6.3 SSW 15 24 8 13 1026.9 1026.9 0.0
22/01:30pm 19.3 16.5 8.7 50 5.5 WSW 13 19 7 10 1027.2 1027.2 0.0
22/01:00pm 18.1 15.5 10.6 61 4.0 WSW 15 20 8 11 1027.5 1027.5 0.0
22/12:30pm 18.0 15.6 11.3 65 3.6 WSW 15 19 8 10 1027.8 1027.8 0.0
22/12:00pm 18.0 15.9 11.1 64 3.7 WSW 13 19 7 10 1028.0 1028.0 0.0
22/11:30am 17.4 15.3 11.1 66 3.4 W 13 17 7 9 1028.1 1028.1 0.0
22/11:00am 18.2 16.6 10.3 60 4.2 W 9 13 5 7 1028.1 1028.1 0.0
22/10:30am 16.5 14.1 10.0 65 3.4 WSW 13 19 7 10 1028.2 1028.2 0.0
22/10:00am 16.7 14.8 8.9 60 4.0 W 9 13 5 7 1028.3 1028.3 0.0
22/09:30am 16.6 14.6 8.5 58 4.1 NNW 9 15 5 8 1028.5 1028.5 0.0
22/09:00am 17.5 14.8 7.5 52 5.0 NNE 11 15 6 8 1028.4 1028.4 0.0
22/08:30am 16.0 14.3 8.2 60 3.9 ENE 7 11 4 6 1028.2 1028.2 0.0
22/08:00am 13.4 11.3 8.1 70 2.6 E 9 11 5 6 1027.8 1027.8 0.0
22/07:30am 11.7 9.9 8.0 78 1.8 E 7 7 4 4 1027.8 1027.8 0.0
22/07:00am 9.2 7.2 7.3 88 0.9 ESE 7 9 4 5 1027.5 1027.5 0.0
22/06:30am 7.7 6.8 6.1 90 0.7 CALM 0 0 0 0 1027.2 1027.2 0.0
22/06:00am 7.6 6.7 6.0 90 0.7 CALM 0 0 0 0 1026.7 1026.7 0.0
22/05:30am 8.0 7.2 6.7 91 0.6 CALM 0 0 0 0 1026.3 1026.3 0.0
22/05:00am 8.6 6.7 6.9 89 0.8 S 6 7 3 4 1026.1 1026.1 0.0
22/04:30am 8.5 6.7 7.0 90 0.7 ESE 6 7 3 4 1025.7 1025.7 0.0
22/04:00am 8.8 6.8 6.4 85 1.1 NE 6 7 3 4 1025.6 1025.6 0.0
22/03:30am 10.5 8.1 6.9 78 1.7 NNE 9 11 5 6 1025.7 1025.7 0.0
22/03:00am 9.3 8.2 6.9 85 1.1 ENE 2 7 1 4 1025.5 1025.5 0.0
22/02:30am 9.0 7.0 7.3 89 0.8 ESE 7 9 4 5 1025.7 1025.7 0.0
22/02:00am 9.4 8.8 7.5 88 0.9 CALM 0 0 0 0 1026.2 1026.2 0.0
22/01:30am 9.4 8.4 7.3 87 1.0 ENE 2 9 1 5 1026.3 1026.3 0.0
22/01:00am 9.7 9.2 8.0 89 0.8 CALM 0 0 0 0 1026.7 1026.7 0.0
22/12:30am 9.8 8.0 8.1 89 0.8 ENE 7 7 4 4 1027.0 1027.0 0.0
22/12:00am 10.0 8.2 8.1 88 0.9 E 7 9 4 5 1027.1 1027.1 0.0
 
Date/Time
CST
Temp
°C
App
Temp
°C
Dew
Point
°C
Rel
Hum
%
Delta-T
°C
Wind Press
QNH
hPa
Press
MSL
hPa
Rain since
9am
mm
Dir  Spd
km/h
Gust
km/h
Spd
kts
Gust
kts
21/11:30pm 10.6 9.1 8.5 87 1.0 E 6 7 3 4 1027.4 1027.4 0.0
21/11:00pm 11.3 9.7 8.7 84 1.3 E 7 9 4 5 1027.4 1027.4 0.0
21/10:30pm 12.1 11.9 8.9 81 1.6 CALM 0 0 0 0 1027.5 1027.5 0.0
21/10:00pm 11.7 10.4 9.1 84 1.3 SE 6 7 3 4 1027.5 1027.5 0.0
21/09:30pm 12.3 10.5 9.5 83 1.4 S 9 9 5 5 1027.5 1027.5 0.0
21/09:00pm 12.9 11.5 9.5 80 1.7 SSW 7 7 4 4 1027.5 1027.5 0.0
21/08:30pm 12.9 12.7 9.1 78 1.9 CALM 0 0 0 0 1027.0 1027.0 0.0
21/08:00pm 13.8 13.0 9.5 75 2.2 SSE 4 7 2 4 1026.9 1026.9 0.0
21/07:30pm 14.7 13.4 9.2 69 2.8 S 6 7 3 4 1026.6 1026.6 0.0
21/07:00pm 15.5 13.5 8.8 64 3.4 S 9 9 5 5 1026.4 1026.4 0.0
21/06:30pm 15.8 14.3 9.2 65 3.4 S 7 9 4 5 1026.3 1026.3 0.0
21/06:00pm 16.5 14.6 8.9 61 3.9 SSW 9 9 5 5 1026.2 1026.2 0.0
21/05:30pm 17.5 15.5 8.7 56 4.5 SW 9 13 5 7 1026.0 1026.0 0.0
21/05:00pm 18.1 15.6 8.3 52 5.0 SW 11 11 6 6 1025.8 1025.8 0.0
21/04:30pm 18.3 16.2 8.3 52 5.1 WSW 9 11 5 6 1025.6 1025.6 0.0
21/04:00pm 18.5 16.5 8.6 52 5.1 SSW 9 13 5 7 1025.6 1025.6 0.0
21/03:30pm 18.0 15.9 8.4 53 4.9 WSW 9 13 5 7 1025.8 1025.8 0.0
21/03:00pm 18.2 16.2 8.7 54 4.9 N 9 17 5 9 1026.2 1026.2 0.0
21/02:30pm 17.6 15.6 8.6 55 4.6 WNW 9 19 5 10 1026.6 1026.6 0.0
21/02:00pm 16.2 14.2 8.7 61 3.8 W 9 15 5 8 1027.0 1027.0 0.0
21/01:30pm 15.5 13.1 8.6 63 3.5 WSW 11 17 6 9 1027.5 1027.5 0.0
21/01:00pm 15.0 12.2 8.6 65 3.2 WSW 13 17 7 9 1027.9 1027.9 0.0
21/12:30pm 14.6 11.8 8.4 66 3.1 WSW 13 17 7 9 1028.2 1028.2 0.0
21/12:00pm 14.8 11.6 8.6 66 3.1 W 15 20 8 11 1028.8 1028.8 0.0
21/11:30am 15.1 11.9 9.9 71 2.7 W 17 20 9 11 1029.1 1029.1 0.0
21/11:00am 15.0 11.7 9.5 69 2.8 W 17 20 9 11 1029.3 1029.3 0.0
21/10:30am 14.5 12.0 9.6 72 2.5 W 13 19 7 10 1029.2 1029.2 0.0
21/10:00am 13.8 11.5 9.0 73 2.4 W 11 19 6 10 1029.3 1029.3 0.0
21/09:30am 13.9 12.1 9.4 74 2.3 WNW 9 11 5 6 1029.2 1029.2 0.0
21/09:00am 13.4 11.5 9.0 75 2.2 N 9 13 5 7 1029.2 1029.2 0.0
21/08:30am 12.8 10.9 9.0 78 1.9 NNW 9 11 5 6 1029.1 1029.1 0.0
21/08:00am 12.4 11.1 9.2 81 1.6 NNE 6 9 3 5 1028.6 1028.6 0.0
21/07:30am 11.9 10.6 9.1 83 1.4 N 6 7 3 4 1028.4 1028.4 0.0
21/07:00am 12.0 9.4 9.2 83 1.4 N 13 15 7 8 1028.2 1028.2 0.0
21/06:30am 12.2 9.6 9.4 83 1.4 N 13 15 7 8 1027.9 1027.9 0.0
21/06:00am 13.1 11.5 8.7 74 2.2 NNW 7 11 4 6 1027.5 1027.5 0.0
21/05:30am 13.1 10.7 8.7 74 2.2 W 11 15 6 8 1027.1 1027.1 0.0
21/05:00am 13.0 11.2 9.6 80 1.7 WSW 9 11 5 6 1027.1 1027.1 0.0
21/04:30am 12.8 10.4 8.8 76 2.0 WNW 11 15 6 8 1026.9 1026.9 0.0
21/04:00am 12.5 10.8 8.2 75 2.1 WSW 7 7 4 4 1026.6 1026.6 0.0
21/03:30am 12.7 11.9 8.2 74 2.2 SSW 2 7 1 4 1026.3 1026.3 0.0
21/03:00am 12.9 11.2 8.5 74 2.2 SSW 7 9 4 5 1026.2 1026.2 0.0
21/02:30am 12.9 12.1 8.2 73 2.3 WSW 2 7 1 4 1026.4 1026.4 0.0
21/02:00am 12.5 12.3 8.9 79 1.8 CALM 0 2 0 1 1026.7 1026.7 0.0
21/01:30am 12.9 12.2 8.5 74 2.2 WSW 2 7 1 4 1027.0 1027.0 0.0
21/01:00am 13.1 11.3 8.0 71 2.5 WSW 7 11 4 6 1027.3 1027.3 0.0
21/12:30am 13.0 11.3 7.7 70 2.6 SW 6 7 3 4 1027.2 1027.2 0.0
21/12:00am 13.2 12.4 8.1 71 2.5 NW 2 7 1 4 1027.1 1027.1 0.0
 
Date/Time
CST
Temp
°C
App
Temp
°C
Dew
Point
°C
Rel
Hum
%
Delta-T
°C
Wind Press
QNH
hPa
Press
MSL
hPa
Rain since
9am
mm
Dir  Spd
km/h
Gust
km/h
Spd
kts
Gust
kts
20/11:30pm 13.4 11.3 8.4 72 2.5 WNW 9 15 5 8 1027.2 1027.2 0.0
20/11:00pm 13.5 11.0 8.0 69 2.7 WSW 11 17 6 9 1027.3 1027.3 0.0
20/10:30pm 13.5 11.0 8.0 69 2.7 WSW 11 13 6 7 1027.2 1027.2 0.0
20/10:00pm 13.5 11.8 9.8 78 1.9 WSW 9 11 5 6 1027.2 1027.2 0.0
20/09:30pm 13.6 11.7 9.0 74 2.3 W 9 11 5 6 1027.2 1027.2 0.0
20/09:00pm 13.7 11.9 9.4 75 2.2 SW 9 15 5 8 1027.1 1027.1 0.0
20/08:30pm 13.5 11.7 9.6 77 2.0 WSW 9 11 5 6 1026.9 1026.9 0.0
20/08:00pm 13.5 12.8 10.0 79 1.8 WSW 4 7 2 4 1026.6 1026.6 0.0
20/07:30pm 13.5 12.4 10.0 79 1.8 W 6 7 3 4 1026.4 1026.4 0.0
20/07:00pm 13.5 11.8 9.8 78 1.9 W 9 11 5 6 1026.1 1026.1 0.0
20/06:30pm 13.5 11.7 9.6 77 2.0 WSW 9 11 5 6 1025.8 1025.8 0.0
20/06:00pm 13.6 11.8 9.5 76 2.1 SW 9 11 5 6 1025.5 1025.5 0.0
20/05:30pm 13.8 11.6 9.3 74 2.3 SW 11 13 6 7 1025.3 1025.3 0.0
20/05:00pm 13.9 11.6 8.9 72 2.5 SW 11 17 6 9 1025.0 1025.0 0.0
20/04:30pm 14.3 11.5 8.7 69 2.8 WSW 13 15 7 8 1024.8 1024.8 0.0
20/04:00pm 14.7 12.0 8.8 68 3.0 SW 13 17 7 9 1024.6 1024.6 0.0
20/03:30pm 14.4 12.0 8.6 68 2.9 SW 11 17 6 9 1024.6 1024.6 0.0
20/03:00pm 14.5 11.7 8.5 67 3.0 SW 13 17 7 9 1024.6 1024.6 0.0
20/02:30pm 14.6 11.8 8.6 67 3.0 WSW 13 19 7 10 1024.6 1024.6 0.0
20/02:00pm 15.1 12.7 8.8 66 3.2 WSW 11 15 6 8 1024.7 1024.7 0.0
20/01:30pm 14.5 11.8 9.0 69 2.8 WSW 13 19 7 10 1024.8 1024.8 0.0
20/01:00pm 14.2 10.9 8.2 67 3.0 SW 15 22 8 12 1025.2 1025.2 0.0
20/12:30pm 13.7 9.8 9.4 75 2.2 SW 20 33 11 18 1025.2 1025.2 0.0
20/12:00pm 14.8 12.1 10.2 74 2.4 W 15 22 8 12 1025.4 1025.4 0.0
20/11:30am 14.1 12.3 9.6 74 2.3 SW 9 13 5 7 1025.4 1025.4 0.0
20/11:00am 13.2 9.6 9.9 80 1.7 SW 19 28 10 15 1025.5 1025.5 0.0
20/10:30am 14.2 11.0 9.9 75 2.2 W 17 22 9 12 1025.4 1025.4 0.0
20/10:00am 14.5 11.4 10.3 76 2.2 W 17 20 9 11 1025.2 1025.2 0.0
20/09:30am 13.6 10.3 9.5 76 2.1 W 17 22 9 12 1024.8 1024.8 0.0
20/09:00am 14.3 11.3 9.4 72 2.5 W 15 19 8 10 1024.4 1024.4 4.2
20/08:30am 13.8 11.0 9.9 77 2.0 WNW 15 19 8 10 1024.0 1024.0 4.2
20/08:00am 12.9 10.3 10.8 87 1.1 WNW 15 19 8 10 1023.6 1023.6 4.2
20/07:30am 12.5 10.6 10.4 87 1.1 WNW 11 15 6 8 1023.5 1023.5 4.2
20/07:00am 12.2 9.7 9.8 85 1.2 W 13 17 7 9 1023.1 1023.1 4.2
20/06:30am 11.9 8.5 9.3 84 1.3 WSW 17 19 9 10 1022.7 1022.7 4.2
20/06:00am 11.8 10.8 9.0 83 1.4 SSW 4 9 2 5 1022.1 1022.1 4.2
20/05:30am 11.5 10.1 8.9 84 1.3 SW 6 7 3 4 1021.8 1021.8 4.2
20/05:00am 12.3 12.3 9.7 84 1.3 CALM 0 0 0 0 1021.4 1021.4 4.2
20/04:30am 11.6 11.4 9.2 85 1.2 CALM 0 0 0 0 1021.3 1021.3 4.2
20/04:00am 11.8 11.7 9.6 86 1.1 CALM 0 0 0 0 1021.1 1021.1 4.2
20/03:30am 11.6 8.7 9.8 89 0.9 WSW 15 19 8 10 1021.0 1021.0 4.2
20/03:00am 11.6 8.9 10.2 91 0.7 WSW 15 19 8 10 1021.0 1021.0 4.2
20/02:30am 11.8 10.2 10.2 90 0.8 WSW 9 15 5 8 1020.9 1020.9 4.0
20/02:00am 11.4 10.3 10.6 95 0.4 E 7 11 4 6 1021.0 1021.0 4.0
20/01:55am 11.5 10.4 10.7 95 0.4 ENE 7 11 4 6 1021.1 1021.1 4.0
20/01:40am 10.7 9.5 9.7 93 0.5 NNE 6 11 3 6 1021.2 1021.2 3.6
20/01:30am 10.4 10.3 9.6 95 0.4 CALM 0 0 0 0 1021.3 1021.3 3.4
20/01:00am 10.2 8.0 9.4 95 0.4 NE 11 11 6 6 1021.3 1021.3 3.4
20/12:30am 9.9 8.1 9.3 96 0.3 NE 9 11 5 6 1021.4 1021.4 3.4
20/12:00am 9.3 7.7 8.7 96 0.3 E 7 9 4 5 1021.4 1021.4 3.4
 
Date/Time
CST
Temp
°C
App
Temp
°C
Dew
Point
°C
Rel
Hum
%
Delta-T
°C
Wind Press
QNH
hPa
Press
MSL
hPa
Rain since
9am
mm
Dir  Spd
km/h
Gust
km/h
Spd
kts
Gust
kts
19/11:49pm 9.3 7.7 8.7 96 0.3 ENE 7 9 4 5 1021.4 1021.4 3.4
19/11:30pm 9.3 7.6 8.5 95 0.4 E 7 9 4 5 1021.3 1021.3 3.4
19/11:00pm 9.3 7.6 8.5 95 0.4 ENE 7 9 4 5 1021.3 1021.3 3.4
19/10:30pm 9.6 7.9 8.4 92 0.6 ENE 7 9 4 5 1021.3 1021.3 3.4
19/10:00pm 10.2 9.2 8.8 91 0.7 NE 4 7 2 4 1021.2 1021.2 3.4
19/09:30pm 10.6 10.4 9.0 90 0.8 CALM 0 2 0 1 1021.2 1021.2 3.4
19/09:00pm 10.3 8.2 8.2 87 1.0 WSW 9 15 5 8 1021.1 1021.1 3.2
19/08:39pm 10.8 8.2 7.7 81 1.5 W 11 15 6 8 1021.2 1021.2 2.8
19/08:30pm 10.9 7.8 7.3 78 1.7 WSW 13 19 7 10 1021.0 1021.0 2.8
19/08:00pm 11.6 8.6 9.4 86 1.1 SW 15 19 8 10 1020.9 1020.9 2.6
19/07:30pm 11.6 7.4 9.8 89 0.9 SW 22 32 12 17 1020.6 1020.6 2.6
19/07:00pm 11.9 10.1 9.5 85 1.2 SSW 9 13 5 7 1020.2 1020.2 2.2
19/06:50pm 12.1 9.8 9.1 82 1.5 S 11 17 6 9 1020.2 1020.2 1.6
19/06:30pm 12.2 9.6 9.4 83 1.4 S 13 17 7 9 1020.0 1020.0 1.2
19/06:00pm 12.5 9.8 8.9 79 1.8 SSW 13 19 7 10 1019.8 1019.8 1.2
19/05:30pm 13.1 9.0 8.0 71 2.5 WSW 19 24 10 13 1019.5 1019.5 1.2

Other Formats:

Comma delimited format used in spreadsheet applications
http://www.bom.gov.au/fwo/IDS60801/IDS60801.94672.axf

JavaScript Object Notation format (JSON) in row-major order
http://www.bom.gov.au/fwo/IDS60801/IDS60801.94672.json